Mount Holly, New Jersey
Current Conditions -  °F | °C
As of 8:54 PM on Saturday 25 Oct 2014 (Local Time) from KVAY Reporting Station
Scattered Clouds Scattered Clouds  
Wind Chill: 15°   Ceiling: Unl
Heat Index: 15°   Visibility: 10mi
Dew Point:   Wind: 5mph
Humidity: 60%   Direction: 210°SSW
Pressure: 29.67"   Gusts: NA
Location:  39.99°N, 74.79°W
Report Text: KVAY 260054Z AUTO 21004KT 10SM SCT070 15/07 A2967 RMK AO2 SLP047 T01500072
Loading
Personal Weather Stations






























Interactive Weather Map
Tropical Storm Tracking
New forecast layout! Learn more

10-Day Weather Forecast

Advertisements
Track Severe Weather on mobile